Time;durP1;ratioP1;P1;durP2;ratioP2;P2;SDS_P1;SDS_P2;PMS_P1;PMS_P2;Temp;Humidity;BMP_temperature;BMP_pressure;BME280_temperature;BME280_humidity;BME280_pressure;Samples;Min_cycle;Max_cycle;Signal;HPM_P1;HPM_P2
2020/12/26 00:04:31;;;;;;;4.10;1.05;;;;;;;3.74;98.46;102555.06;10390063;28;20057;-74
2020/12/26 00:09:32;;;;;;;3.67;0.90;;;;;;;4.04;98.50;102580.13;10386775;28;20080;-75
2020/12/26 00:14:32;;;;;;;4.03;0.82;;;;;;;3.98;97.93;102570.53;10378572;28;20046;-74
2020/12/26 00:19:33;;;;;;;4.93;1.25;;;;;;;3.92;98.08;102576.94;10381678;28;20045;-74
2020/12/26 00:24:33;;;;;;;3.40;0.80;;;;;;;3.36;97.96;102490.41;10385629;28;20509;-75
2020/12/26 00:29:33;;;;;;;3.63;0.73;;;;;;;3.31;98.73;102485.03;10389404;28;20068;-74
2020/12/26 00:34:38;;;;;;;;;;;;;;;3.93;99.08;102578.56;10379850;28;20068;-73
2020/12/26 00:39:38;;;;;;;4.75;1.00;;;;;;;3.59;99.06;102514.97;10392110;28;19913;-73
2020/12/26 00:44:38;;;;;;;7.97;1.38;;;;;;;3.90;99.01;102563.03;10390050;28;20049;-73
2020/12/26 00:49:39;;;;;;;4.95;0.98;;;;;;;3.63;98.38;102525.94;10394155;28;20418;-74
2020/12/26 00:54:40;;;;;;;6.32;1.45;;;;;;;4.09;98.18;102561.41;10389026;28;20138;-75
2020/12/26 00:59:41;;;;;;;6.28;0.95;;;;;;;3.78;97.59;102513.31;10389567;28;20394;-74
2020/12/26 01:04:41;;;;;;;10.63;1.67;;;;;;;4.09;97.10;102556.06;10394278;28;20037;-74
2020/12/26 01:09:42;;;;;;;5.47;1.10;;;;;;;3.79;95.96;102522.94;10393928;28;20065;-74
2020/12/26 01:14:44;;;;;;;6.75;1.25;;;;;;;4.14;94.49;102564.06;10394251;28;20049;-74
2020/12/26 01:19:45;;;;;;;5.47;1.45;;;;;;;4.15;93.51;102560.28;10372701;28;20391;-75
2020/12/26 01:24:46;;;;;;;5.07;1.08;;;;;;;4.03;92.95;102563.28;10391177;28;20045;-75
2020/12/26 01:29:47;;;;;;;3.92;0.80;;;;;;;3.92;92.30;102526.13;10387428;28;20079;-74
2020/12/26 01:34:48;;;;;;;5.63;0.93;;;;;;;3.63;92.63;102489.28;10390107;28;20045;-74
2020/12/26 01:39:48;;;;;;;3.30;0.77;;;;;;;3.39;92.35;102441.75;10392493;28;20034;-75
2020/12/26 01:44:48;;;;;;;2.53;0.80;;;;;;;4.03;90.63;102549.09;10390831;28;20044;-74
2020/12/26 01:49:49;;;;;;;4.80;0.98;;;;;;;4.01;89.67;102543.22;10389459;28;20045;-74
2020/12/26 01:54:52;;;;;;;7.75;0.98;;;;;;;3.93;87.95;102525.06;10391707;28;20071;-75
2020/12/26 01:59:52;;;;;;;5.35;0.90;;;;;;;3.97;87.93;102542.16;10388840;28;20073;-74
2020/12/26 02:04:53;;;;;;;2.22;0.80;;;;;;;3.61;88.37;102480.72;10392531;28;20055;-75
2020/12/26 02:09:53;;;;;;;3.40;0.70;;;;;;;3.88;87.55;102523.19;10387107;28;20060;-75
2020/12/26 02:14:54;;;;;;;6.78;1.00;;;;;;;3.91;87.36;102527.22;10390002;28;20062;-74
2020/12/26 02:19:54;;;;;;;5.53;0.80;;;;;;;3.69;87.04;102493.56;10385194;28;20457;-75
2020/12/26 02:24:54;;;;;;;8.23;1.30;;;;;;;3.91;86.12;102521.84;10391194;28;20052;-75
2020/12/26 02:29:55;;;;;;;9.00;1.10;;;;;;;3.89;86.04;102507.94;10391346;28;20033;-75
2020/12/26 02:34:55;;;;;;;4.32;1.10;;;;;;;3.97;85.88;102526.09;10389383;28;20052;-74
2020/12/26 02:39:56;;;;;;;3.38;1.00;;;;;;;3.58;85.45;102443.84;10388455;28;20045;-74
2020/12/26 02:44:56;;;;;;;7.65;1.02;;;;;;;3.94;85.42;102490.00;10388871;28;20757;-74
2020/12/26 02:49:57;;;;;;;4.78;1.20;;;;;;;4.00;85.16;102493.47;10390839;28;20100;-74
2020/12/26 02:54:57;;;;;;;4.53;1.33;;;;;;;3.85;84.79;102458.72;10389250;28;20087;-75
2020/12/26 02:59:57;;;;;;;6.40;1.35;;;;;;;3.73;84.27;102425.06;10390669;28;21445;-75
2020/12/26 03:04:58;;;;;;;4.93;0.88;;;;;;;3.63;84.20;102387.66;10390121;28;20487;-74
2020/12/26 03:09:58;;;;;;;8.13;1.20;;;;;;;4.01;83.96;102436.19;10390904;28;20052;-74
2020/12/26 03:14:59;;;;;;;3.83;0.85;;;;;;;3.65;84.18;102374.03;10389857;28;20125;-74
2020/12/26 03:20:00;;;;;;;9.82;1.38;;;;;;;3.59;85.23;102362.53;10389543;28;20487;-74
2020/12/26 03:25:00;;;;;;;13.40;1.33;;;;;;;3.84;87.42;102376.88;10389064;28;20061;-74
2020/12/26 03:30:01;;;;;;;8.57;1.90;;;;;;;3.55;90.23;102332.06;10388070;28;22702;-74
2020/12/26 03:35:01;;;;;;;5.80;1.38;;;;;;;3.43;89.92;102320.91;10384457;28;20082;-74
2020/12/26 03:40:08;;;;;;;8.05;1.27;;;;;;;3.60;89.78;102350.78;10388972;28;20041;-74
2020/12/26 03:45:08;;;;;;;8.73;1.45;;;;;;;3.70;89.58;102393.53;10390379;28;20059;-73
2020/12/26 03:50:09;;;;;;;6.68;1.42;;;;;;;3.60;89.80;102404.25;10392250;28;20422;-73
2020/12/26 03:55:09;;;;;;;7.65;1.58;;;;;;;3.25;90.19;102349.84;10375773;28;20048;-74
2020/12/26 04:00:10;;;;;;;7.72;1.98;;;;;;;3.33;90.47;102367.97;10379484;28;20045;-74
2020/12/26 04:05:10;;;;;;;9.63;2.25;;;;;;;3.22;90.75;102366.41;10396848;28;20041;-74
2020/12/26 04:10:11;;;;;;;7.30;2.38;;;;;;;2.71;91.35;102281.06;10361506;28;20045;-74
2020/12/26 04:15:12;;;;;;;10.15;3.00;;;;;;;3.32;91.72;102382.44;10379887;28;20041;-74
2020/12/26 04:20:12;;;;;;;11.45;3.03;;;;;;;2.88;91.81;102324.28;10377034;28;20128;-74
2020/12/26 04:25:13;;;;;;;7.88;2.45;;;;;;;3.31;92.02;102386.16;10375951;28;20087;-74
2020/12/26 04:30:14;;;;;;;7.70;2.70;;;;;;;3.18;93.24;102370.72;10370477;28;20049;-74
2020/12/26 04:35:16;;;;;;;7.53;2.85;;;;;;;3.14;94.09;102383.00;10380346;28;20120;-74
2020/12/26 04:40:17;;;;;;;14.52;3.88;;;;;;;3.06;94.19;102384.34;10392688;28;20049;-74
2020/12/26 04:45:17;;;;;;;9.15;2.95;;;;;;;2.59;94.36;102299.22;10395597;28;20049;-74
2020/12/26 04:50:18;;;;;;;8.40;3.15;;;;;;;2.86;94.63;102358.47;10391998;28;20037;-74
2020/12/26 04:55:28;;;;;;;9.35;3.20;;;;;;;2.88;94.72;102356.31;10391410;28;20042;-73
2020/12/26 05:00:31;;;;;;;15.00;3.70;;;;;;;2.73;94.82;102332.31;10395425;28;20044;-74
2020/12/26 05:05:36;;;;;;;14.20;5.32;;;;;;;2.37;94.34;102276.28;10392801;28;20055;-73
2020/12/26 05:10:38;;;;;;;12.13;4.50;;;;;;;2.65;95.48;102340.88;10394431;28;20047;-74
2020/12/26 05:15:39;;;;;;;;;;;;;;;2.72;95.12;102338.72;10392014;28;20045;-74
2020/12/26 05:20:39;;;;;;;10.27;3.72;;;;;;;2.23;95.09;102269.88;10381335;28;19940;-73
2020/12/26 05:25:52;;;;;;;12.77;3.65;;;;;;;2.54;95.63;102324.88;10378547;28;20390;-73
2020/12/26 05:30:53;;;;;;;14.30;4.50;;;;;;;2.48;95.72;102325.91;10378057;28;20073;-73
2020/12/26 05:36:02;;;;;;;14.10;4.43;;;;;;;2.42;96.07;102311.00;10372197;28;20043;-75
2020/12/26 05:41:02;;;;;;;11.48;4.18;;;;;;;2.21;95.82;102288.03;10375191;28;20116;-72
2020/12/26 05:46:03;;;;;;;9.85;4.38;;;;;;;2.47;95.61;102313.66;10389825;28;20037;-75
2020/12/26 05:51:03;;;;;;;14.15;4.63;;;;;;;2.46;95.65;102328.06;10389432;28;20049;-73
2020/12/26 05:56:04;;;;;;;14.20;4.25;;;;;;;2.43;95.51;102333.94;10392199;28;20486;-73
2020/12/26 06:01:04;;;;;;;10.15;4.03;;;;;;;2.36;95.49;102322.72;10391794;28;20041;-73
2020/12/26 06:06:05;;;;;;;11.30;3.95;;;;;;;2.36;94.80;102301.38;10371744;28;20045;-73
2020/12/26 06:11:06;;;;;;;8.52;3.83;;;;;;;2.33;94.78;102297.38;10392064;28;20037;-73
2020/12/26 06:16:20;;;;;;;10.68;4.80;;;;;;;2.45;94.21;102326.47;10392515;28;20048;-73
2020/12/26 06:21:23;;;;;;;9.05;3.70;;;;;;;2.22;95.17;102286.97;10387191;28;20061;-74
2020/12/26 06:26:29;;;;;;;10.27;4.40;;;;;;;1.87;95.68;102224.53;10389659;28;20042;-73
2020/12/26 06:31:29;;;;;;;10.18;3.95;;;;;;;2.07;94.68;102235.22;10368166;28;20091;-74
2020/12/26 06:36:30;;;;;;;14.57;4.93;;;;;;;2.41;93.83;102277.34;10386858;28;20041;-73
2020/12/26 06:41:30;;;;;;;12.38;4.57;;;;;;;2.63;94.12;102300.28;10386776;28;20060;-73
2020/12/26 06:46:35;;;;;;;10.02;3.92;;;;;;;2.66;94.69;102313.13;10390432;28;20045;-74
2020/12/26 06:51:42;;;;;;;9.25;4.05;;;;;;;2.82;94.05;102325.34;10388032;28;20041;-74
2020/12/26 06:56:42;;;;;;;11.75;3.75;;;;;;;2.86;93.41;102318.41;10388166;28;20478;-73
2020/12/26 07:01:46;;;;;;;6.75;3.30;;;;;;;2.91;93.44;102302.34;10379708;28;20140;-74
2020/12/26 07:06:54;;;;;;;5.38;2.80;;;;;;;2.73;92.48;102262.91;10384903;28;20118;-74
2020/12/26 07:11:55;;;;;;;8.45;3.35;;;;;;;2.68;92.24;102254.88;10367451;28;20128;-74
2020/12/26 07:16:59;;;;;;;11.38;2.75;;;;;;;2.68;92.43;102254.88;10365724;28;20572;-74
2020/12/26 07:22:05;;;;;;;6.57;2.13;;;;;;;2.83;91.29;102267.41;10362942;28;20067;-74
2020/12/26 07:27:15;;;;;;;11.02;2.15;;;;;;;3.09;91.43;102302.88;10370820;28;20049;-74
2020/12/26 07:32:38;;;;;;;5.97;2.83;;;;;;;3.15;90.98;102304.44;10369468;28;20075;-74
2020/12/26 07:37:39;;;;;;;8.55;2.65;;;;;;;3.10;91.06;102309.78;10374090;28;20042;-74
2020/12/26 07:42:42;;;;;;;11.23;2.95;;;;;;;3.11;91.28;102295.38;10388731;28;20045;-74
2020/12/26 07:47:48;;;;;;;7.70;3.15;;;;;;;3.17;90.28;102294.28;10380504;28;20041;-74
2020/12/26 07:52:54;;;;;;;10.40;3.72;;;;;;;3.05;90.06;102264.41;10387956;28;20149;-74
2020/12/26 07:58:07;;;;;;;7.72;2.92;;;;;;;3.19;90.21;102289.47;10386614;28;20656;-73
2020/12/26 08:03:10;;;;;;;5.97;2.63;;;;;;;3.15;89.36;102269.69;10389460;28;20483;-73
2020/12/26 08:08:26;;;;;;;;;;;;;;;3.22;89.03;102275.53;10356335;28;20399;-73
2020/12/26 08:13:26;;;;;;;9.57;2.55;;;;;;;3.11;88.09;102231.25;10390763;28;20045;-73
2020/12/26 08:18:27;;;;;;;8.20;2.63;;;;;;;3.25;88.04;102242.94;10388624;28;20049;-73
2020/12/26 08:23:27;;;;;;;8.90;2.83;;;;;;;2.44;88.27;102111.34;10388652;28;20049;-74
2020/12/26 08:28:28;;;;;;;6.68;2.38;;;;;;;3.17;87.97;102209.59;10391887;28;20057;-73
2020/12/26 08:33:30;;;;;;;10.60;3.13;;;;;;;2.97;88.03;102173.06;10373523;28;20619;-74
2020/12/26 08:38:39;;;;;;;12.20;4.80;;;;;;;3.42;88.19;102225.75;10396587;28;20050;-73
2020/12/26 08:43:39;;;;;;;11.23;4.32;;;;;;;2.97;88.10;102178.41;10388419;28;20045;-74
2020/12/26 08:48:41;;;;;;;9.57;3.90;;;;;;;2.83;88.14;102161.38;10396393;28;20041;-73
2020/12/26 08:53:43;;;;;;;9.63;4.10;;;;;;;2.86;88.18;102155.47;10373625;28;20673;-74
2020/12/26 08:58:48;;;;;;;11.75;3.38;;;;;;;3.26;87.66;102217.81;10390678;28;20045;-74
2020/12/26 09:03:49;;;;;;;7.82;3.72;;;;;;;3.17;87.51;102200.75;10393210;28;20041;-74
2020/12/26 09:08:50;;;;;;;10.63;3.40;;;;;;;3.43;87.62;102216.63;10364347;28;20054;-75
2020/12/26 09:13:50;;;;;;;12.45;3.38;;;;;;;3.58;87.30;102203.19;10351186;28;20403;-74
2020/12/26 09:18:51;;;;;;;6.45;2.80;;;;;;;3.41;86.98;102182.19;10346507;28;20049;-74
2020/12/26 09:23:53;;;;;;;12.35;5.43;;;;;;;3.49;87.69;102178.13;10324323;28;20041;-74
2020/12/26 09:28:59;;;;;;;7.68;3.08;;;;;;;3.12;87.80;102115.28;10333169;28;20037;-74
2020/12/26 09:34:01;;;;;;;7.45;3.03;;;;;;;3.49;87.69;102172.78;10316889;28;20049;-73
2020/12/26 09:39:05;;;;;;;9.77;3.15;;;;;;;3.17;87.40;102112.56;10344407;28;20068;-73
2020/12/26 09:44:05;;;;;;;9.63;3.22;;;;;;;3.01;88.58;102092.38;10341252;28;20545;-74
2020/12/26 09:49:06;;;;;;;12.50;3.47;;;;;;;3.37;88.54;102149.84;10343473;28;20135;-73
2020/12/26 09:54:07;;;;;;;8.35;3.80;;;;;;;3.29;88.69;102137.09;10327774;28;20064;-73
2020/12/26 09:59:08;;;;;;;14.35;3.92;;;;;;;3.07;88.24;102091.28;10327716;28;20479;-74
2020/12/26 10:04:08;;;;;;;9.07;3.50;;;;;;;3.56;88.06;102141.16;10342077;28;20050;-73
2020/12/26 10:09:09;;;;;;;12.20;3.85;;;;;;;3.59;87.88;102152.09;10377831;28;20446;-74
2020/12/26 10:14:09;;;;;;;17.42;3.45;;;;;;;3.62;88.01;102145.38;10384993;28;20048;-73
2020/12/26 10:19:09;;;;;;;11.00;4.00;;;;;;;3.53;87.37;102123.03;10388561;28;20128;-74
2020/12/26 10:24:10;;;;;;;10.05;3.63;;;;;;;3.31;87.32;102086.81;10389698;28;20046;-74
2020/12/26 10:29:10;;;;;;;9.70;4.05;;;;;;;3.61;86.92;102101.03;10391373;28;20437;-72
2020/12/26 10:34:11;;;;;;;9.98;3.17;;;;;;;3.81;87.44;102127.59;10385491;28;20140;-74
2020/12/26 10:39:11;;;;;;;8.00;3.33;;;;;;;4.04;87.71;102119.88;10389248;28;20449;-74
2020/12/26 10:44:12;;;;;;;13.88;3.70;;;;;;;4.33;86.28;102103.00;10368535;28;20045;-74
2020/12/26 10:49:12;;;;;;;7.60;3.03;;;;;;;4.14;86.23;102066.25;10387046;28;20128;-74
2020/12/26 10:54:13;;;;;;;9.98;3.15;;;;;;;4.41;86.38;102097.00;10388180;28;20509;-74
2020/12/26 10:59:14;;;;;;;7.13;3.83;;;;;;;4.20;87.10;102062.44;10391615;28;20049;-74
2020/12/26 11:04:14;;;;;;;7.28;2.92;;;;;;;4.36;86.68;102095.16;10388373;28;20094;-74
2020/12/26 11:09:16;;;;;;;7.47;3.00;;;;;;;4.37;86.51;102058.47;10388041;28;20060;-74
2020/12/26 11:14:19;;;;;;;11.83;3.43;;;;;;;4.58;86.15;102054.44;10384326;28;20041;-72
2020/12/26 11:19:21;;;;;;;7.30;3.97;;;;;;;4.68;85.88;102042.00;10385534;28;20040;-76
2020/12/26 11:24:22;;;;;;;6.43;2.88;;;;;;;4.27;84.96;101971.06;10388262;28;20191;-74
2020/12/26 11:29:22;;;;;;;11.18;3.58;;;;;;;4.64;85.73;102015.81;10383631;28;20585;-74
2020/12/26 11:34:23;;;;;;;8.00;3.78;;;;;;;4.71;85.98;102014.66;10370101;28;20049;-75
2020/12/26 11:39:24;;;;;;;9.70;3.85;;;;;;;4.60;86.08;101982.66;10385587;28;20041;-74
2020/12/26 11:44:24;;;;;;;10.68;4.15;;;;;;;4.40;86.00;101924.06;10387451;28;20166;-73
2020/12/26 11:49:24;;;;;;;8.98;4.53;;;;;;;4.84;86.38;101971.06;10386619;28;20046;-76
2020/12/26 11:54:25;;;;;;;9.60;3.90;;;;;;;4.83;86.07;101942.69;10378425;28;20500;-75
2020/12/26 11:59:25;;;;;;;8.90;3.40;;;;;;;4.87;86.76;101932.97;10374981;28;20268;-75
2020/12/26 12:04:26;;;;;;;7.40;3.30;;;;;;;4.99;86.91;101930.63;10386648;28;20057;-76
2020/12/26 12:09:27;;;;;;;10.40;3.35;;;;;;;4.83;87.03;101905.19;10388048;28;20131;-76
2020/12/26 12:14:27;;;;;;;13.00;4.07;;;;;;;4.94;87.20;101906.59;10393167;28;20435;-75
2020/12/26 12:19:28;;;;;;;13.23;3.47;;;;;;;4.88;87.71;101902.41;10393575;28;20519;-75
2020/12/26 12:24:28;;;;;;;6.63;3.25;;;;;;;4.83;88.39;101879.16;10391431;28;20067;-76
2020/12/26 12:29:29;;;;;;;6.88;3.33;;;;;;;4.80;88.25;101841.47;10393240;28;20045;-75
2020/12/26 12:34:29;;;;;;;10.57;3.30;;;;;;;4.64;87.89;101812.28;10384174;28;20049;-75
2020/12/26 12:39:30;;;;;;;9.10;2.97;;;;;;;4.87;88.40;101837.31;10391064;28;20042;-75
2020/12/26 12:44:30;;;;;;;10.02;2.78;;;;;;;5.15;88.58;101847.25;10392366;28;20056;-75
2020/12/26 12:49:31;;;;;;;6.40;2.90;;;;;;;4.73;88.89;101766.84;10391625;28;20041;-76
2020/12/26 12:54:31;;;;;;;7.50;2.63;;;;;;;4.58;89.46;101717.03;10388362;28;20529;-74
2020/12/26 12:59:33;;;;;;;7.88;3.00;;;;;;;5.14;89.98;101813.50;10387927;28;20076;-75
2020/12/26 13:04:33;;;;;;;8.88;3.17;;;;;;;5.24;90.08;101775.78;10383114;28;20096;-76
2020/12/26 13:09:34;;;;;;;12.85;3.30;;;;;;;5.30;90.22;101775.38;10387544;28;20060;-74
2020/12/26 13:14:34;;;;;;;10.77;3.13;;;;;;;5.25;90.25;101774.69;10392542;28;20421;-75
2020/12/26 13:19:35;;;;;;;9.38;3.15;;;;;;;5.10;91.13;101765.06;10380707;28;20076;-73
2020/12/26 13:24:35;;;;;;;6.07;3.40;;;;;;;4.85;91.44;101720.81;10383560;28;20046;-75
2020/12/26 13:29:36;;;;;;;10.25;3.58;;;;;;;5.09;91.90;101769.63;10386804;28;20152;-74
2020/12/26 13:34:36;;;;;;;13.27;3.47;;;;;;;4.75;92.58;101721.00;10388816;28;20045;-75
2020/12/26 13:39:37;;;;;;;10.43;4.00;;;;;;;4.86;93.28;101727.75;10386206;28;20119;-74
2020/12/26 13:44:37;;;;;;;7.05;3.83;;;;;;;4.82;93.58;101694.63;10386132;28;20045;-74
2020/12/26 13:49:38;;;;;;;12.05;4.50;;;;;;;5.24;93.79;101730.19;10387033;28;20049;-75
2020/12/26 13:54:38;;;;;;;9.98;4.40;;;;;;;4.78;93.65;101640.06;10390360;28;20139;-76
2020/12/26 13:59:39;;;;;;;9.05;5.20;;;;;;;4.89;94.09;101636.06;10369242;28;20053;-76
2020/12/26 14:04:42;;;;;;;10.02;5.00;;;;;;;5.33;94.02;101677.47;10385261;28;20061;-76
2020/12/26 14:09:42;;;;;;;;;;;;;;;5.43;93.64;101682.59;10385211;28;20502;-76
2020/12/26 14:14:43;;;;;;;13.40;5.25;;;;;;;5.41;94.61;101667.88;10384089;28;19925;-75
2020/12/26 14:19:43;;;;;;;9.57;5.40;;;;;;;5.37;94.90;101673.09;10386804;28;20132;-75
2020/12/26 14:24:44;;;;;;;8.25;5.35;;;;;;;5.27;94.83;101630.44;10383485;28;20053;-76
2020/12/26 14:29:45;;;;;;;9.07;5.28;;;;;;;5.23;93.95;101613.34;10382200;28;20048;-77
2020/12/26 14:34:46;;;;;;;9.60;5.43;;;;;;;5.39;93.79;101638.72;10385044;28;20379;-76
2020/12/26 14:39:46;;;;;;;6.93;4.82;;;;;;;5.25;93.38;101595.09;10384762;28;20102;-75
2020/12/26 14:44:47;;;;;;;11.30;5.10;;;;;;;5.51;93.49;101630.91;10387265;28;20466;-75
2020/12/26 14:49:47;;;;;;;11.77;5.13;;;;;;;5.07;93.56;101565.47;10384505;28;20041;-76
2020/12/26 14:54:47;;;;;;;11.25;4.88;;;;;;;5.51;93.49;101620.19;10386563;28;20708;-76
2020/12/26 14:59:48;;;;;;;8.52;5.13;;;;;;;5.51;93.74;101630.91;10384074;28;20065;-76
2020/12/26 15:04:48;;;;;;;7.35;4.15;;;;;;;5.48;93.80;101612.75;10382189;28;20511;-75
2020/12/26 15:09:49;;;;;;;8.48;4.95;;;;;;;5.28;93.41;101562.31;10381957;28;20090;-75
2020/12/26 15:14:49;;;;;;;13.07;7.15;;;;;;;5.21;93.72;101540.50;10385820;28;20072;-75
2020/12/26 15:19:52;;;;;;;7.93;4.45;;;;;;;5.54;93.53;101596.53;10382450;28;20041;-75
2020/12/26 15:24:53;;;;;;;9.32;4.57;;;;;;;5.26;93.83;101526.97;10356848;28;20042;-77
2020/12/26 15:29:53;;;;;;;7.25;4.43;;;;;;;5.57;93.10;101558.38;10383381;28;20163;-76
2020/12/26 15:34:54;;;;;;;6.20;4.65;;;;;;;5.55;93.71;101544.47;10375871;28;20047;-75
2020/12/26 15:39:54;;;;;;;6.60;4.22;;;;;;;5.59;93.59;101529.34;10385377;28;20509;-75
2020/12/26 15:44:54;;;;;;;6.60;4.43;;;;;;;5.62;93.51;101512.63;10394901;28;20553;-75
2020/12/26 15:49:55;;;;;;;14.93;4.80;;;;;;;5.27;93.42;101453.50;10390077;28;20470;-75
2020/12/26 15:54:55;;;;;;;6.30;4.18;;;;;;;5.63;94.28;101487.41;10390451;28;20042;-75
2020/12/26 15:59:56;;;;;;;7.45;4.60;;;;;;;5.22;96.10;101440.22;10389187;28;20055;-76
2020/12/26 16:04:56;;;;;;;12.50;5.25;;;;;;;5.30;96.92;101447.53;10387285;28;20038;-77
2020/12/26 16:09:57;;;;;;;9.88;4.78;;;;;;;5.46;96.95;101455.97;10390619;28;20084;-77
2020/12/26 16:14:58;;;;;;;14.80;5.13;;;;;;;5.38;97.31;101437.94;10392361;28;20345;-77
2020/12/26 16:19:58;;;;;;;11.18;5.10;;;;;;;4.88;96.61;101371.94;10391239;28;20049;-77
2020/12/26 16:24:59;;;;;;;7.53;4.72;;;;;;;5.44;96.55;101426.75;10376758;28;20067;-76
2020/12/26 16:30:00;;;;;;;8.90;4.75;;;;;;;5.42;97.14;101410.19;10388907;28;20041;-76
2020/12/26 16:35:00;;;;;;;11.00;5.22;;;;;;;5.05;97.76;101355.94;10393833;28;20048;-75
2020/12/26 16:40:00;;;;;;;12.10;5.05;;;;;;;5.25;96.80;101367.25;10392820;28;20068;-75
2020/12/26 16:45:03;;;;;;;9.65;5.03;;;;;;;5.27;95.87;101373.88;10387808;28;20053;-75
2020/12/26 16:50:03;;;;;;;;;;;;;;;5.55;94.85;101378.19;10391743;28;20120;-75
2020/12/26 16:55:04;;;;;;;11.27;5.40;;;;;;;5.51;94.85;101346.66;10384590;28;19925;-75
2020/12/26 17:00:08;;;;;;;6.63;4.20;;;;;;;5.16;94.88;101283.34;10382519;28;20045;-77
2020/12/26 17:05:10;;;;;;;10.40;5.43;;;;;;;5.06;96.90;101277.16;10387596;28;20096;-74
2020/12/26 17:10:10;;;;;;;8.00;5.03;;;;;;;5.33;97.57;101323.56;10382720;28;20045;-75
2020/12/26 17:15:11;;;;;;;9.13;5.10;;;;;;;5.01;97.84;101271.13;10388775;28;20073;-74
2020/12/26 17:20:11;;;;;;;8.30;4.63;;;;;;;5.24;97.80;101293.28;10388526;28;20041;-75
2020/12/26 17:25:12;;;;;;;9.82;4.80;;;;;;;4.91;97.49;101242.72;10387924;28;20120;-76
2020/12/26 17:30:12;;;;;;;8.02;4.18;;;;;;;5.04;96.37;101263.28;10398767;28;20193;-75
2020/12/26 17:35:13;;;;;;;8.50;4.68;;;;;;;5.37;96.79;101270.91;10385129;28;20160;-75
2020/12/26 17:40:13;;;;;;;7.57;4.95;;;;;;;5.35;98.31;101265.06;10392731;28;20045;-75
2020/12/26 17:45:14;;;;;;;13.05;5.78;;;;;;;5.13;98.43;101238.38;10388702;28;20041;-76
2020/12/26 17:50:14;;;;;;;10.35;4.70;;;;;;;5.32;97.28;101246.94;10380756;28;20038;-75
2020/12/26 17:55:15;;;;;;;9.10;4.70;;;;;;;5.09;96.93;101190.78;10367203;28;20065;-75
2020/12/26 18:00:15;;;;;;;9.43;4.70;;;;;;;4.75;96.69;101121.06;10388563;28;20599;-75
2020/12/26 18:05:15;;;;;;;7.72;5.50;;;;;;;5.33;97.39;101200.25;10385846;28;20042;-75
2020/12/26 18:10:16;;;;;;;11.43;6.10;;;;;;;4.98;98.36;101168.06;10381379;28;20062;-74
2020/12/26 18:15:16;;;;;;;8.32;6.28;;;;;;;5.05;97.88;101149.63;10385251;28;20042;-74
2020/12/26 18:20:17;;;;;;;13.63;6.57;;;;;;;4.96;97.47;101132.78;10386612;28;20095;-74
2020/12/26 18:25:17;;;;;;;8.25;5.85;;;;;;;5.30;97.70;101184.81;10393293;28;20045;-75
2020/12/26 18:30:19;;;;;;;7.82;5.65;;;;;;;5.01;97.37;101105.81;10388632;28;20095;-74
2020/12/26 18:35:19;;;;;;;8.90;5.72;;;;;;;5.04;96.74;101065.00;10385827;28;20033;-76
2020/12/26 18:40:20;;;;;;;8.88;5.47;;;;;;;5.20;96.79;101088.66;10387267;28;20414;-75
2020/12/26 18:45:21;;;;;;;8.20;5.25;;;;;;;5.00;95.69;101031.88;10389955;28;20037;-75
2020/12/26 18:50:22;;;;;;;7.20;4.70;;;;;;;5.03;95.38;101035.81;10368260;28;20723;-75
2020/12/26 18:55:22;;;;;;;9.50;5.13;;;;;;;5.32;95.95;101059.31;10386826;28;20041;-74
2020/12/26 19:00:23;;;;;;;9.63;5.22;;;;;;;5.06;95.66;101014.56;10386077;28;20045;-74
2020/12/26 19:05:23;;;;;;;10.45;5.85;;;;;;;5.07;95.18;100997.38;10388566;28;20037;-75
2020/12/26 19:10:23;;;;;;;8.40;5.47;;;;;;;5.15;95.31;101008.38;10383484;28;20080;-74
2020/12/26 19:15:24;;;;;;;9.50;5.60;;;;;;;5.33;95.26;101007.25;10387014;28;20168;-76
2020/12/26 19:20:25;;;;;;;9.65;4.90;;;;;;;5.42;94.54;101015.28;10387209;28;20103;-76
2020/12/26 19:25:26;;;;;;;10.43;6.05;;;;;;;5.41;94.94;101035.94;10387328;28;20478;-76
2020/12/26 19:30:26;;;;;;;8.88;5.07;;;;;;;5.22;94.93;100995.28;10385879;28;20049;-76
2020/12/26 19:35:27;;;;;;;8.80;4.80;;;;;;;5.45;94.74;101031.50;10382191;28;20709;-75
2020/12/26 19:40:28;;;;;;;9.27;5.07;;;;;;;4.94;94.75;100915.31;10381714;28;20060;-74
2020/12/26 19:45:28;;;;;;;6.20;4.80;;;;;;;5.14;94.16;100923.75;10381895;28;20037;-75
2020/12/26 19:50:29;;;;;;;7.25;5.03;;;;;;;5.23;94.06;100916.47;10387062;28;20504;-74
2020/12/26 19:55:31;;;;;;;8.77;4.63;;;;;;;5.49;94.66;100941.28;10387073;28;20069;-75
2020/12/26 20:00:32;;;;;;;7.05;5.55;;;;;;;5.33;95.63;100929.53;10384230;28;20049;-76
2020/12/26 20:05:32;;;;;;;7.85;6.05;;;;;;;5.35;96.52;100903.19;10383450;28;20148;-76
2020/12/26 20:10:33;;;;;;;8.73;5.75;;;;;;;5.29;96.03;100861.56;10381836;28;20052;-76
2020/12/26 20:15:33;;;;;;;7.35;5.32;;;;;;;5.50;95.92;100899.97;10382989;28;20258;-76
2020/12/26 20:20:34;;;;;;;8.25;5.30;;;;;;;5.56;94.91;100870.28;10388041;28;20045;-76
2020/12/26 20:25:34;;;;;;;7.70;5.13;;;;;;;5.36;94.72;100829.72;10380208;28;20175;-76
2020/12/26 20:30:34;;;;;;;9.57;5.72;;;;;;;5.56;94.40;100832.75;10389037;28;20049;-78
2020/12/26 20:35:35;;;;;;;8.15;4.95;;;;;;;5.11;94.49;100763.63;10391439;28;20095;-77
2020/12/26 20:40:36;;;;;;;9.93;4.93;;;;;;;5.12;93.89;100738.41;10379662;28;20399;-77
2020/12/26 20:45:36;;;;;;;5.28;4.53;;;;;;;5.69;93.56;100820.97;10385659;28;20072;-77
2020/12/26 20:50:37;;;;;;;9.05;4.32;;;;;;;5.46;93.35;100770.34;10386229;28;20057;-76
2020/12/26 20:55:37;;;;;;;8.73;3.95;;;;;;;5.67;93.21;100791.03;10384783;28;20041;-75
2020/12/26 21:00:38;;;;;;;5.25;3.40;;;;;;;5.88;92.61;100786.44;10384939;28;20041;-76
2020/12/26 21:05:41;;;;;;;6.85;3.80;;;;;;;5.86;92.85;100777.94;10373841;28;20041;-77
2020/12/26 21:10:41;;;;;;;5.63;3.78;;;;;;;5.48;92.60;100698.41;10386955;28;20056;-77
2020/12/26 21:15:45;;;;;;;7.65;3.92;;;;;;;5.95;91.82;100769.84;10388061;28;20524;-76
2020/12/26 21:20:46;;;;;;;6.60;3.95;;;;;;;5.78;91.92;100695.63;10385487;28;20049;-73
2020/12/26 21:25:46;;;;;;;8.13;4.65;;;;;;;5.86;92.37;100697.47;10367351;28;20049;-75
2020/12/26 21:30:47;;;;;;;6.70;4.18;;;;;;;5.54;92.34;100617.78;10377233;28;20480;-79
2020/12/26 21:35:49;;;;;;;7.25;4.20;;;;;;;5.40;92.41;100594.72;10378223;28;20045;-76
2020/12/26 21:40:49;;;;;;;8.50;3.92;;;;;;;5.69;92.63;100627.88;10382319;28;20049;-75
2020/12/26 21:45:49;;;;;;;5.68;3.90;;;;;;;5.82;92.29;100642.91;10381765;28;20042;-76
2020/12/26 21:50:50;;;;;;;7.18;4.43;;;;;;;5.43;92.81;100556.53;10377568;28;20399;-77
2020/12/26 21:55:50;;;;;;;5.35;4.10;;;;;;;5.77;92.52;100618.97;10385698;28;20044;-76
2020/12/26 22:00:52;;;;;;;7.55;3.65;;;;;;;5.70;92.41;100581.19;10383342;28;20068;-76
2020/12/26 22:05:52;;;;;;;7.68;4.35;;;;;;;5.78;91.90;100572.25;10378162;28;20056;-76
2020/12/26 22:10:53;;;;;;;8.30;4.32;;;;;;;5.49;91.88;100496.22;10382737;28;20049;-76
2020/12/26 22:15:54;;;;;;;6.38;4.30;;;;;;;5.65;91.58;100487.53;10377414;28;20037;-76
2020/12/26 22:20:55;;;;;;;7.30;4.63;;;;;;;5.75;92.23;100513.91;10362923;28;20128;-78
2020/12/26 22:25:55;;;;;;;7.30;5.00;;;;;;;5.50;91.83;100468.31;10384541;28;20103;-78
2020/12/26 22:30:56;;;;;;;9.65;5.40;;;;;;;5.66;92.74;100499.81;10382600;28;20041;-75
2020/12/26 22:35:56;;;;;;;8.15;4.90;;;;;;;5.49;92.51;100469.41;10366939;28;20560;-76
2020/12/26 22:40:57;;;;;;;6.93;4.82;;;;;;;5.71;91.57;100470.09;10382629;28;20099;-74
2020/12/26 22:45:57;;;;;;;8.35;4.88;;;;;;;5.11;92.07;100377.81;10385288;28;20041;-75
2020/12/26 22:51:00;;;;;;;6.50;4.60;;;;;;;5.60;91.98;100452.91;10383788;28;20037;-76
2020/12/26 22:56:01;;;;;;;9.63;5.35;;;;;;;5.35;92.01;100399.25;10376735;28;20832;-76
2020/12/26 23:01:01;;;;;;;6.07;4.75;;;;;;;5.56;91.64;100409.09;10382637;28;20049;-77
2020/12/26 23:06:09;;;;;;;7.35;4.75;;;;;;;5.59;91.38;100370.88;10381490;28;20042;-79
2020/12/26 23:11:09;;;;;;;9.68;5.93;;;;;;;5.45;91.25;100329.09;10379758;28;20140;-76
2020/12/26 23:16:11;;;;;;;9.60;4.90;;;;;;;5.50;91.15;100315.50;10381733;28;20037;-76
2020/12/26 23:21:12;;;;;;;8.65;5.22;;;;;;;5.61;91.16;100331.13;10381235;28;20038;-76